Time;durP1;ratioP1;P1;durP2;ratioP2;P2;SDS_P1;SDS_P2;PMS_P1;PMS_P2;Temp;Humidity;BMP_temperature;BMP_pressure;BME280_temperature;BME280_humidity;BME280_pressure;Samples;Min_cycle;Max_cycle;Signal;HPM_P1;HPM_P2
2022/05/11 00:01:29;;;;;;;7.40;3.10;;;;;10.00;97780.60;;;;110698;1249;41201;-70
2022/05/11 00:04:00;;;;;;;8.10;3.10;;;;;10.00;97777.80;;;;110858;1251;40869;-70
2022/05/11 00:06:29;;;;;;;8.30;3.30;;;;;9.96;97779.20;;;;110867;1251;41930;-69
2022/05/11 00:08:59;;;;;;;10.10;3.00;;;;;9.84;97779.80;;;;110871;1250;41151;-69
2022/05/11 00:11:29;;;;;;;5.00;2.20;;;;;9.80;97780.80;;;;110897;1250;41261;-69
2022/05/11 00:13:59;;;;;;;6.40;2.40;;;;;9.74;97784.40;;;;110793;1252;42191;-70
2022/05/11 00:16:29;;;;;;;6.50;2.50;;;;;9.70;97785.20;;;;110843;1249;41252;-70
2022/05/11 00:19:00;;;;;;;5.40;2.40;;;;;9.70;97783.20;;;;110858;1250;41459;-70
2022/05/11 00:21:30;;;;;;;5.60;2.30;;;;;9.70;97785.60;;;;110825;1251;41176;-69
2022/05/11 00:24:01;;;;;;;5.90;2.20;;;;;9.70;97783.00;;;;110810;1251;40745;-69
2022/05/11 00:26:31;;;;;;;6.50;2.50;;;;;9.70;97780.40;;;;110824;1251;41144;-69
2022/05/11 00:29:02;;;;;;;6.20;2.40;;;;;9.70;97781.80;;;;110750;1252;41613;-69
2022/05/11 00:31:32;;;;;;;7.50;2.80;;;;;9.70;97780.00;;;;110724;1254;41156;-68
2022/05/11 00:34:01;;;;;;;11.00;3.50;;;;;9.66;97773.20;;;;110823;1251;41154;-69
2022/05/11 00:36:31;;;;;;;24.70;3.70;;;;;9.50;97779.40;;;;110790;1253;41180;-70
2022/05/11 00:39:02;;;;;;;32.20;3.50;;;;;9.34;97780.00;;;;110759;1250;41588;-69
2022/05/11 00:41:33;;;;;;;8.70;2.70;;;;;9.30;97781.80;;;;110823;1250;41143;-69
2022/05/11 00:44:05;;;;;;;7.60;2.40;;;;;9.30;97778.80;;;;110860;1250;41163;-69
2022/05/11 00:47:17;;;;;;;4.50;2.10;;;;;9.28;97774.40;;;;110865;1250;41124;-70
2022/05/11 00:49:54;;;;;;;5.10;2.00;;;;;9.30;97774.60;;;;110328;1258;41192;-69
2022/05/11 00:52:48;;;;;;;5.80;2.30;;;;;9.30;97771.20;;;;110841;1250;41911;-68
2022/05/11 00:55:24;;;;;;;5.20;2.20;;;;;9.30;97772.40;;;;111013;1250;41598;-70
2022/05/11 00:57:59;;;;;;;;;;;;;9.26;97770.80;;;;110938;1250;41147;-70
2022/05/11 01:00:29;;;;;;;6.80;2.40;;;;;9.20;97772.40;;;;110951;1250;41729;-69
2022/05/11 01:03:14;;;;;;;6.40;2.60;;;;;9.20;97768.20;;;;110806;1253;41154;-70
2022/05/11 01:05:45;;;;;;;6.50;2.40;;;;;9.20;97771.40;;;;110796;1250;41157;-69
2022/05/11 01:08:18;;;;;;;7.00;2.60;;;;;9.20;97773.40;;;;110907;1250;41166;-69
2022/05/11 01:10:49;;;;;;;7.70;2.40;;;;;9.20;97773.40;;;;110852;1251;41169;-69
2022/05/11 01:13:20;;;;;;;5.30;2.20;;;;;9.20;97776.00;;;;111019;1250;41158;-70
2022/05/11 01:15:53;;;;;;;6.00;2.50;;;;;9.20;97778.20;;;;111017;1251;41384;-72
2022/05/11 01:18:24;;;;;;;4.80;2.10;;;;;9.20;97780.60;;;;110896;1250;41907;-68
2022/05/11 01:20:55;;;;;;;5.60;2.30;;;;;9.20;97778.20;;;;110849;1251;42351;-69
2022/05/11 01:23:39;;;;;;;5.10;2.40;;;;;9.12;97784.60;;;;110897;1251;41146;-69
2022/05/11 01:26:10;;;;;;;5.50;2.50;;;;;9.10;97788.20;;;;111067;1250;41465;-70
2022/05/11 01:28:42;;;;;;;8.30;3.20;;;;;9.10;97790.40;;;;110983;1251;41254;-70
2022/05/11 01:31:14;;;;;;;14.10;3.90;;;;;9.10;97789.60;;;;110752;1254;41171;-70
2022/05/11 01:33:49;;;;;;;11.50;4.40;;;;;9.00;97788.00;;;;111069;1250;41726;-70
2022/05/11 01:36:27;;;;;;;10.00;3.70;;;;;9.00;97789.60;;;;110968;1251;42465;-70
2022/05/11 01:39:08;;;;;;;8.80;3.50;;;;;8.90;97788.00;;;;110850;1251;42637;-70
2022/05/11 01:41:43;;;;;;;7.60;3.00;;;;;8.80;97787.40;;;;110965;1251;41599;-70
2022/05/11 01:44:16;;;;;;;7.20;2.80;;;;;8.80;97791.20;;;;110682;1254;41150;-70
2022/05/11 01:46:51;;;;;;;10.20;3.20;;;;;8.80;97787.60;;;;110981;1252;41144;-69
2022/05/11 01:49:22;;;;;;;9.80;2.70;;;;;8.80;97784.20;;;;110978;1250;41183;-69
2022/05/11 01:51:52;;;;;;;5.70;2.40;;;;;8.76;97781.80;;;;110937;1251;41215;-70
2022/05/11 01:54:22;;;;;;;6.10;2.50;;;;;8.80;97775.80;;;;110793;1251;41421;-69
2022/05/11 01:56:52;;;;;;;9.50;2.70;;;;;8.80;97775.80;;;;110796;1251;41176;-69
2022/05/11 01:59:23;;;;;;;6.40;2.70;;;;;8.80;97776.20;;;;110973;1251;41337;-69
2022/05/11 02:01:54;;;;;;;10.10;3.10;;;;;8.80;97782.80;;;;110968;1251;41147;-69
2022/05/11 02:10:03;;;;;;;15.90;3.70;;;;;8.80;97772.40;;;;111218;1248;41268;-68
2022/05/11 02:12:36;;;;;;;20.80;4.00;;;;;8.86;97770.00;;;;111130;1247;41155;-70
2022/05/11 02:15:07;;;;;;;8.90;3.50;;;;;8.90;97773.80;;;;110785;1250;41145;-69
2022/05/11 02:17:37;;;;;;;6.50;2.60;;;;;8.86;97774.60;;;;111013;1251;41933;-70
2022/05/11 02:20:10;;;;;;;10.00;2.90;;;;;8.90;97776.80;;;;111028;1251;41374;-70
2022/05/11 02:22:40;;;;;;;14.20;3.00;;;;;8.88;97776.80;;;;111012;1251;42346;-68
2022/05/11 02:25:11;;;;;;;7.00;2.60;;;;;8.88;97776.40;;;;111110;1250;41277;-69
2022/05/11 02:27:42;;;;;;;7.70;3.00;;;;;8.90;97777.00;;;;110967;1251;43106;-70
2022/05/11 02:30:15;;;;;;;;;;;;;8.90;97777.60;;;;111052;1250;42170;-69
2022/05/11 02:32:45;;;;;;;8.70;3.50;;;;;8.82;97771.80;;;;110963;1251;41166;-70
2022/05/11 02:35:16;;;;;;;10.90;3.00;;;;;8.80;97775.20;;;;110870;1250;41171;-69
2022/05/11 02:37:46;;;;;;;16.30;4.00;;;;;8.86;97780.80;;;;110875;1250;41149;-69
2022/05/11 02:40:20;;;;;;;11.50;4.00;;;;;8.90;97779.20;;;;110864;1250;41373;-67
2022/05/11 02:42:50;;;;;;;9.80;3.40;;;;;8.90;97778.40;;;;110834;1251;41280;-69
2022/05/11 02:45:21;;;;;;;6.70;2.90;;;;;8.90;97783.80;;;;111143;1250;41551;-69
2022/05/11 02:47:53;;;;;;;7.80;2.70;;;;;9.00;97780.40;;;;110980;1248;41153;-69
2022/05/11 02:50:31;;;;;;;17.90;3.30;;;;;9.00;97779.80;;;;111126;1250;41831;-69
2022/05/11 02:53:07;;;;;;;8.60;3.10;;;;;9.00;97777.20;;;;110786;1254;41169;-69
2022/05/11 02:55:41;;;;;;;8.30;3.30;;;;;9.00;97782.60;;;;110991;1250;41739;-70
2022/05/11 02:58:13;;;;;;;9.60;2.90;;;;;9.00;97785.60;;;;111191;1248;41268;-71
2022/05/11 03:00:45;;;;;;;8.90;2.90;;;;;9.00;97786.60;;;;111058;1251;41362;-71
2022/05/11 03:03:16;;;;;;;15.30;4.50;;;;;9.00;97788.20;;;;111203;1250;42359;-69
2022/05/11 03:05:48;;;;;;;12.90;5.30;;;;;9.00;97784.80;;;;111149;1250;41131;-69
2022/05/11 03:08:18;;;;;;;15.80;5.50;;;;;8.90;97784.80;;;;111138;1248;41751;-69
2022/05/11 03:10:48;;;;;;;16.00;4.70;;;;;8.90;97789.60;;;;111007;1251;42082;-71
2022/05/11 03:13:18;;;;;;;16.10;4.40;;;;;8.84;97787.00;;;;111082;1250;41163;-70
2022/05/11 03:15:47;;;;;;;21.20;5.00;;;;;8.84;97793.00;;;;111038;1248;41155;-70
2022/05/11 03:18:17;;;;;;;10.70;3.40;;;;;8.88;97791.60;;;;110963;1250;41186;-70
2022/05/11 03:20:47;;;;;;;18.90;3.90;;;;;8.90;97788.00;;;;111181;1247;41607;-70
2022/05/11 03:23:16;;;;;;;13.50;4.30;;;;;8.90;97790.60;;;;110899;1250;41683;-69
2022/05/11 03:25:46;;;;;;;8.90;3.20;;;;;8.90;97795.00;;;;111154;1248;41135;-70
2022/05/11 03:28:16;;;;;;;8.80;3.50;;;;;8.92;97799.20;;;;110842;1250;41591;-68
2022/05/11 03:30:45;;;;;;;11.60;3.50;;;;;9.00;97805.40;;;;110752;1251;42371;-69
2022/05/11 03:36:04;;;;;;;8.30;2.60;;;;;9.10;97805.40;;;;110793;1249;41159;-70
2022/05/11 03:38:34;;;;;;;11.00;3.20;;;;;9.10;97808.60;;;;111095;1250;41708;-70
2022/05/11 03:41:04;;;;;;;10.40;3.90;;;;;9.14;97810.20;;;;111022;1249;41833;-70
2022/05/11 03:43:34;;;;;;;9.80;3.70;;;;;9.20;97812.40;;;;110862;1251;41264;-71
2022/05/11 03:46:03;;;;;;;7.80;3.20;;;;;9.20;97821.20;;;;110926;1250;41307;-70
2022/05/11 03:48:33;;;;;;;6.70;2.60;;;;;9.30;97816.60;;;;111079;1248;41271;-70
2022/05/11 03:51:06;;;;;;;8.10;3.30;;;;;9.30;97819.40;;;;111124;1250;41591;-70
2022/05/11 03:53:37;;;;;;;7.90;3.30;;;;;9.40;97821.80;;;;110967;1247;41153;-70
2022/05/11 03:56:07;;;;;;;7.10;3.00;;;;;9.40;97825.00;;;;110769;1250;41156;-68
2022/05/11 03:58:37;;;;;;;11.70;4.60;;;;;9.50;97824.40;;;;110814;1251;42211;-69
2022/05/11 04:01:06;;;;;;;10.40;4.20;;;;;9.50;97822.60;;;;110980;1250;41650;-68
2022/05/11 04:03:35;;;;;;;12.10;4.20;;;;;9.58;97822.40;;;;110871;1251;41267;-69
2022/05/11 04:06:06;;;;;;;11.50;4.20;;;;;9.60;97817.80;;;;110903;1250;41749;-69
2022/05/11 04:08:35;;;;;;;7.30;3.10;;;;;9.60;97823.20;;;;110863;1250;41263;-69
2022/05/11 04:11:05;;;;;;;8.00;3.40;;;;;9.60;97821.40;;;;110820;1253;41252;-71
2022/05/11 04:13:34;;;;;;;7.80;3.10;;;;;9.70;97825.00;;;;110952;1250;41268;-69
2022/05/11 04:16:04;;;;;;;13.10;4.20;;;;;9.80;97830.60;;;;110902;1250;41931;-70
2022/05/11 04:18:34;;;;;;;17.30;4.20;;;;;9.80;97828.20;;;;110994;1251;41229;-69
2022/05/11 04:21:03;;;;;;;9.80;3.50;;;;;9.80;97829.60;;;;111145;1250;41144;-70
2022/05/11 04:23:32;;;;;;;7.00;2.80;;;;;9.90;97822.40;;;;111068;1250;41869;-69
2022/05/11 04:26:02;;;;;;;7.90;3.30;;;;;10.10;97817.00;;;;110788;1251;41189;-70
2022/05/11 04:28:32;;;;;;;9.30;3.20;;;;;10.30;97822.20;;;;111136;1248;41146;-68
2022/05/11 04:31:07;;;;;;;8.50;3.50;;;;;10.60;97815.20;;;;110851;1251;41166;-70
2022/05/11 04:33:37;;;;;;;7.50;3.20;;;;;10.80;97819.60;;;;111147;1250;41375;-70
2022/05/11 04:36:08;;;;;;;7.70;3.40;;;;;10.80;97814.80;;;;110805;1250;41354;-69
2022/05/11 04:38:38;;;;;;;7.70;3.20;;;;;10.90;97811.80;;;;110904;1250;41260;-69
2022/05/11 04:41:08;;;;;;;19.00;3.50;;;;;11.12;97816.60;;;;111020;1250;41710;-69
2022/05/11 04:43:37;;;;;;;12.10;3.20;;;;;11.18;97815.80;;;;110917;1250;41204;-71
2022/05/11 04:46:06;;;;;;;12.70;2.70;;;;;11.12;97819.20;;;;111079;1249;41253;-69
2022/05/11 04:48:35;;;;;;;7.90;3.20;;;;;11.20;97825.80;;;;111029;1250;41148;-70
2022/05/11 04:51:04;;;;;;;8.00;3.30;;;;;11.26;97825.20;;;;111132;1250;41152;-70
2022/05/11 04:53:33;;;;;;;6.60;2.60;;;;;11.30;97824.00;;;;110974;1251;41184;-70
2022/05/11 04:56:02;;;;;;;11.20;3.60;;;;;11.40;97826.80;;;;110909;1250;41764;-70
2022/05/11 04:58:31;;;;;;;14.20;3.80;;;;;11.44;97829.80;;;;111120;1249;41320;-70
2022/05/11 05:01:00;;;;;;;8.30;3.50;;;;;11.26;97829.80;;;;110955;1250;41855;-70
2022/05/11 05:03:29;;;;;;;20.50;4.10;;;;;11.26;97830.80;;;;111094;1248;41257;-70
2022/05/11 05:05:58;;;;;;;12.20;3.40;;;;;11.20;97832.40;;;;110867;1250;41939;-69
2022/05/11 05:08:27;;;;;;;10.50;3.20;;;;;11.30;97835.60;;;;111037;1250;42628;-70
2022/05/11 05:10:56;;;;;;;8.10;3.30;;;;;11.32;97833.40;;;;110804;1253;41008;-71
2022/05/11 05:13:26;;;;;;;6.40;2.50;;;;;11.44;97836.60;;;;111046;1250;42227;-70
2022/05/11 05:15:58;;;;;;;5.70;2.40;;;;;11.50;97841.20;;;;111020;1248;41724;-71
2022/05/11 05:18:28;;;;;;;6.60;2.90;;;;;11.62;97842.40;;;;111165;1248;41148;-70
2022/05/11 05:21:02;;;;;;;9.30;2.90;;;;;11.80;97840.80;;;;110958;1250;42249;-68
2022/05/11 05:23:38;;;;;;;8.30;3.00;;;;;11.80;97842.20;;;;111103;1248;41759;-69
2022/05/11 05:26:13;;;;;;;7.60;3.30;;;;;11.80;97845.20;;;;110998;1248;41139;-70
2022/05/11 05:31:31;;;;;;;6.20;2.90;;;;;11.80;97847.00;;;;110852;1250;41273;-70
2022/05/11 05:34:00;;;;;;;6.50;2.50;;;;;11.82;97853.60;;;;111073;1250;41272;-70
2022/05/11 05:36:32;;;;;;;4.80;2.20;;;;;12.00;97850.40;;;;111134;1248;41302;-71
2022/05/11 05:39:01;;;;;;;4.60;2.20;;;;;12.20;97849.20;;;;110955;1250;41941;-69
2022/05/11 05:41:30;;;;;;;5.40;2.20;;;;;12.38;97849.40;;;;110899;1250;41146;-70
2022/05/11 05:43:59;;;;;;;5.70;2.50;;;;;12.50;97855.60;;;;111192;1248;41275;-69
2022/05/11 05:46:27;;;;;;;5.40;2.30;;;;;12.64;97857.40;;;;110942;1251;41157;-70
2022/05/11 05:48:56;;;;;;;5.60;2.60;;;;;12.70;97855.00;;;;110978;1248;41264;-69
2022/05/11 05:51:26;;;;;;;7.10;3.10;;;;;12.90;97855.60;;;;111142;1248;41900;-69
2022/05/11 05:53:55;;;;;;;7.00;2.90;;;;;13.00;97851.80;;;;110939;1250;42261;-70
2022/05/11 05:56:24;;;;;;;5.10;2.30;;;;;13.00;97851.20;;;;111120;1250;41193;-68
2022/05/11 05:58:58;;;;;;;6.50;2.80;;;;;13.10;97849.80;;;;111020;1250;41173;-67
2022/05/11 06:01:28;;;;;;;7.40;2.90;;;;;13.20;97858.80;;;;110900;1250;41269;-68
2022/05/11 06:03:57;;;;;;;5.70;2.50;;;;;13.30;97856.40;;;;111087;1250;41708;-67
2022/05/11 06:06:26;;;;;;;6.90;3.10;;;;;13.40;97858.80;;;;110940;1251;43121;-68
2022/05/11 06:08:55;;;;;;;7.80;3.10;;;;;13.60;97857.20;;;;110713;1253;41273;-68
2022/05/11 06:11:24;;;;;;;8.20;3.20;;;;;13.62;97856.40;;;;110936;1251;41547;-68
2022/05/11 06:13:53;;;;;;;6.10;2.50;;;;;13.62;97862.40;;;;110939;1250;41138;-68
2022/05/11 06:16:21;;;;;;;9.00;3.10;;;;;13.80;97861.60;;;;110939;1250;41794;-69
2022/05/11 06:18:51;;;;;;;9.40;4.00;;;;;13.92;97855.80;;;;110899;1250;41948;-69
2022/05/11 06:21:20;;;;;;;7.10;3.30;;;;;13.90;97856.80;;;;110747;1252;41141;-70
2022/05/11 06:23:49;;;;;;;7.60;3.10;;;;;13.90;97865.00;;;;110727;1250;41144;-70
2022/05/11 06:26:19;;;;;;;;;;;;;13.90;97866.80;;;;110978;1250;41134;-70
2022/05/11 06:28:48;;;;;;;6.30;2.70;;;;;13.94;97864.80;;;;110985;1250;41905;-69
2022/05/11 06:31:19;;;;;;;8.20;3.40;;;;;14.18;97868.40;;;;110992;1250;41495;-68
2022/05/11 06:33:50;;;;;;;8.00;3.30;;;;;14.38;97870.80;;;;110930;1251;41607;-69
2022/05/11 06:36:20;;;;;;;7.30;3.10;;;;;14.40;97874.00;;;;110902;1250;41016;-69
2022/05/11 06:38:52;;;;;;;7.00;3.00;;;;;14.60;97871.80;;;;110782;1251;41913;-72
2022/05/11 06:41:25;;;;;;;6.40;2.60;;;;;14.62;97874.00;;;;111050;1249;41136;-72
2022/05/11 06:43:55;;;;;;;6.10;2.60;;;;;14.90;97877.60;;;;111033;1250;41146;-68
2022/05/11 06:46:25;;;;;;;6.80;3.00;;;;;15.10;97872.60;;;;110988;1249;41376;-71
2022/05/11 06:48:55;;;;;;;10.50;4.10;;;;;15.30;97869.40;;;;110966;1250;41143;-70
2022/05/11 06:51:25;;;;;;;10.10;3.90;;;;;15.50;97871.00;;;;110752;1253;41885;-71
2022/05/11 06:59:33;;;;;;;9.00;4.40;;;;;15.48;97864.40;;;;110978;1249;41148;-69
2022/05/11 07:02:04;;;;;;;7.50;3.40;;;;;15.50;97871.20;;;;110976;1250;41715;-72
2022/05/11 07:04:35;;;;;;;7.00;3.20;;;;;15.40;97871.00;;;;110872;1250;41029;-72
2022/05/11 07:07:05;;;;;;;6.80;3.10;;;;;15.68;97865.40;;;;110969;1251;42436;-71
2022/05/11 07:09:35;;;;;;;8.20;3.50;;;;;16.18;97868.00;;;;110736;1250;41301;-72
2022/05/11 07:12:17;;;;;;;8.30;3.90;;;;;16.60;97859.60;;;;110762;1251;41992;-71
2022/05/11 07:14:53;;;;;;;7.80;3.70;;;;;16.80;97858.60;;;;110747;1253;41269;-71
2022/05/11 07:17:38;;;;;;;7.50;3.40;;;;;17.26;97861.40;;;;110772;1250;41283;-71
2022/05/11 07:20:14;;;;;;;7.90;3.50;;;;;17.30;97857.60;;;;110868;1251;42456;-70
2022/05/11 07:22:43;;;;;;;9.10;4.00;;;;;17.82;97855.40;;;;110812;1252;41285;-70
2022/05/11 07:25:16;;;;;;;7.70;3.90;;;;;18.20;97850.20;;;;110978;1250;42359;-70
2022/05/11 07:27:46;;;;;;;8.00;3.60;;;;;18.38;97853.60;;;;110705;1253;41968;-70
2022/05/11 07:30:32;;;;;;;7.50;3.40;;;;;18.40;97855.00;;;;110690;1252;41175;-70
2022/05/11 07:33:06;;;;;;;7.60;2.90;;;;;18.50;97856.40;;;;110948;1250;41447;-70
2022/05/11 07:35:35;;;;;;;7.30;3.40;;;;;18.80;97853.00;;;;110654;1253;41735;-71
2022/05/11 07:38:09;;;;;;;8.30;3.60;;;;;19.10;97857.40;;;;110925;1250;41152;-70
2022/05/11 07:40:38;;;;;;;8.50;3.70;;;;;19.20;97858.20;;;;110870;1251;41729;-69
2022/05/11 07:43:08;;;;;;;8.00;3.60;;;;;19.12;97851.20;;;;110724;1253;42757;-71
2022/05/11 07:45:38;;;;;;;9.90;4.50;;;;;19.20;97855.40;;;;110704;1253;41144;-71
2022/05/11 07:48:08;;;;;;;11.70;4.80;;;;;19.40;97856.20;;;;110783;1251;42378;-70
2022/05/11 07:50:37;;;;;;;6.80;3.10;;;;;19.28;97857.60;;;;110720;1253;41348;-71
2022/05/11 07:53:06;;;;;;;6.30;2.70;;;;;19.64;97856.20;;;;110715;1251;41189;-69
2022/05/11 07:55:36;;;;;;;8.00;3.50;;;;;20.56;97851.40;;;;110946;1250;41139;-71
2022/05/11 08:00:53;;;;;;;8.30;3.50;;;;;21.50;97844.00;;;;110819;1252;41185;-69
2022/05/11 08:03:23;;;;;;;7.50;3.40;;;;;21.72;97843.80;;;;110860;1251;41176;-71
2022/05/11 08:05:53;;;;;;;6.30;2.80;;;;;21.98;97839.00;;;;110999;1250;41139;-71
2022/05/11 08:08:24;;;;;;;7.70;3.30;;;;;22.70;97835.40;;;;110983;1250;41121;-71
2022/05/11 08:10:55;;;;;;;8.80;4.10;;;;;23.32;97835.00;;;;110933;1250;41166;-71
2022/05/11 08:13:25;;;;;;;8.40;3.90;;;;;23.10;97831.20;;;;110779;1251;41152;-70
2022/05/11 08:15:54;;;;;;;8.70;3.50;;;;;23.10;97827.60;;;;110786;1251;41173;-71
2022/05/11 08:18:23;;;;;;;7.30;3.30;;;;;23.18;97825.00;;;;110841;1251;42084;-71
2022/05/11 08:20:52;;;;;;;8.40;3.50;;;;;23.68;97822.00;;;;110955;1251;42397;-70
2022/05/11 08:23:22;;;;;;;9.10;3.70;;;;;23.96;97820.40;;;;110986;1251;41259;-71
2022/05/11 08:25:54;;;;;;;7.60;3.60;;;;;24.44;97815.60;;;;110871;1251;41582;-73
2022/05/11 08:28:25;;;;;;;8.10;3.70;;;;;24.90;97816.00;;;;110730;1252;41160;-71
2022/05/11 08:33:42;;;;;;;7.40;3.40;;;;;25.50;97809.40;;;;110793;1250;42090;-72
2022/05/11 08:36:31;;;;;;;11.60;4.60;;;;;25.58;97811.00;;;;110861;1252;41878;-72
2022/05/11 08:39:04;;;;;;;11.10;4.90;;;;;25.58;97806.20;;;;110863;1251;41602;-72
2022/05/11 08:41:33;;;;;;;9.50;3.70;;;;;25.08;97804.80;;;;110781;1251;42039;-72
2022/05/11 08:44:05;;;;;;;8.90;4.10;;;;;25.34;97797.80;;;;111010;1251;41179;-72
2022/05/11 08:47:20;;;;;;;8.00;3.40;;;;;25.90;97796.00;;;;110892;1250;42344;-71
2022/05/11 08:50:13;;;;;;;9.20;3.70;;;;;26.24;97791.80;;;;110579;1251;41835;-72
2022/05/11 08:52:52;;;;;;;12.20;4.10;;;;;26.02;97790.60;;;;110925;1251;41503;-72
2022/05/11 08:55:23;;;;;;;8.30;3.30;;;;;25.76;97793.60;;;;110876;1250;41148;-71
2022/05/11 08:57:56;;;;;;;7.20;3.00;;;;;26.20;97793.00;;;;110837;1250;41136;-72
2022/05/11 09:00:28;;;;;;;8.60;3.20;;;;;26.22;97794.40;;;;110863;1251;41147;-73
2022/05/11 09:02:58;;;;;;;;;;;;;26.68;97798.60;;;;111040;1249;41259;-72
2022/05/11 09:05:31;;;;;;;8.40;3.40;;;;;27.04;97792.60;;;;110652;1253;41151;-71
2022/05/11 09:08:04;;;;;;;9.60;3.60;;;;;26.90;97793.00;;;;110993;1250;41162;-73
2022/05/11 09:10:35;;;;;;;7.10;2.60;;;;;26.86;97798.40;;;;110791;1252;41740;-73
2022/05/11 09:13:12;;;;;;;8.60;2.80;;;;;26.92;97791.60;;;;110862;1252;41392;-72
2022/05/11 09:15:54;;;;;;;9.30;3.40;;;;;27.48;97788.40;;;;110941;1250;41332;-70
2022/05/11 09:18:32;;;;;;;10.30;3.40;;;;;27.18;97788.20;;;;110929;1250;41370;-72
2022/05/11 09:21:20;;;;;;;7.80;2.90;;;;;27.24;97793.80;;;;110768;1251;42238;-72
2022/05/11 09:24:02;;;;;;;6.30;2.50;;;;;26.54;97798.60;;;;110910;1250;42652;-72
2022/05/11 09:26:38;;;;;;;6.90;2.90;;;;;26.00;97795.20;;;;110893;1250;41166;-72
2022/05/11 09:29:31;;;;;;;7.40;2.90;;;;;26.44;97797.80;;;;110879;1250;42058;-72
2022/05/11 09:32:25;;;;;;;7.60;3.60;;;;;26.60;97792.80;;;;110834;1250;41144;-72
2022/05/11 09:34:54;;;;;;;9.80;4.30;;;;;26.44;97785.60;;;;110828;1251;41166;-71
2022/05/11 09:37:44;;;;;;;7.50;3.40;;;;;26.32;97785.80;;;;110830;1250;41163;-71
2022/05/11 09:40:20;;;;;;;13.60;4.70;;;;;25.88;97789.20;;;;110870;1250;41267;-73
2022/05/11 09:42:54;;;;;;;9.60;4.50;;;;;26.20;97793.60;;;;110781;1250;41172;-71
2022/05/11 09:45:43;;;;;;;8.90;4.50;;;;;25.82;97796.20;;;;110892;1248;41177;-71
2022/05/11 09:48:18;;;;;;;8.60;4.00;;;;;25.80;97795.40;;;;111097;1249;41250;-73
2022/05/11 09:50:56;;;;;;;7.90;3.10;;;;;25.38;97789.20;;;;110958;1250;41318;-72
2022/05/11 09:53:27;;;;;;;6.90;3.20;;;;;26.14;97790.40;;;;111005;1248;41184;-70
2022/05/11 09:56:16;;;;;;;10.70;3.60;;;;;26.60;97793.40;;;;111130;1248;41942;-72
2022/05/11 09:58:45;;;;;;;8.60;3.40;;;;;27.56;97791.40;;;;110658;1250;327466;-72
2022/05/11 10:01:24;;;;;;;7.10;2.90;;;;;27.98;97794.60;;;;110926;1250;41632;-71
2022/05/11 10:04:13;;;;;;;7.30;2.80;;;;;28.84;97794.80;;;;110959;1248;42538;-72
2022/05/11 10:07:08;;;;;;;9.40;3.60;;;;;29.88;97789.80;;;;110649;1250;41145;-71
2022/05/11 10:09:44;;;;;;;6.50;3.10;;;;;29.48;97789.00;;;;110776;1252;41665;-72
2022/05/11 10:12:16;;;;;;;7.60;3.00;;;;;29.88;97787.40;;;;111033;1248;41154;-71
2022/05/11 10:21:50;;;;;;;6.60;2.70;;;;;30.10;97787.80;;;;110746;1250;41161;-72
2022/05/11 10:24:44;;;;;;;8.30;3.60;;;;;30.38;97787.00;;;;110889;1250;41168;-72
2022/05/11 10:27:38;;;;;;;7.90;2.80;;;;;30.02;97782.80;;;;110915;1250;41289;-74
2022/05/11 10:30:32;;;;;;;7.50;2.90;;;;;28.94;97785.80;;;;110972;1248;41386;-72
2022/05/11 10:33:09;;;;;;;7.00;2.70;;;;;28.50;97776.00;;;;110971;1249;40909;-71
2022/05/11 10:36:04;;;;;;;6.40;2.80;;;;;28.30;97781.00;;;;110971;1249;42053;-71
2022/05/11 10:39:13;;;;;;;7.30;2.40;;;;;28.08;97771.40;;;;110975;1249;41143;-72
2022/05/11 10:41:55;;;;;;;9.00;2.60;;;;;27.92;97775.40;;;;110647;1250;42324;-70
2022/05/11 10:45:08;;;;;;;5.50;2.30;;;;;28.40;97771.80;;;;110764;1251;41232;-70
2022/05/11 10:47:49;;;;;;;5.60;2.30;;;;;28.30;97769.40;;;;110940;1250;42287;-72
2022/05/11 10:50:28;;;;;;;4.30;2.00;;;;;28.36;97765.00;;;;110856;1250;41154;-72
2022/05/11 10:53:11;;;;;;;6.60;2.40;;;;;28.10;97767.40;;;;110908;1250;41155;-70
2022/05/11 10:56:08;;;;;;;4.90;2.30;;;;;27.96;97765.40;;;;110885;1250;41147;-70
2022/05/11 10:59:01;;;;;;;3.90;1.70;;;;;27.46;97770.20;;;;110900;1251;41154;-71
2022/05/11 11:02:10;;;;;;;3.90;1.70;;;;;26.70;97771.20;;;;110830;1250;41166;-73
2022/05/11 11:04:57;;;;;;;3.80;1.80;;;;;27.56;97765.40;;;;110436;1250;41167;-73
2022/05/11 11:08:02;;;;;;;5.80;2.20;;;;;28.82;97760.40;;;;110854;1247;41588;-74
2022/05/11 11:10:41;;;;;;;4.60;1.80;;;;;28.52;97764.40;;;;110949;1249;41439;-73
2022/05/11 11:13:38;;;;;;;4.00;1.90;;;;;29.12;97750.20;;;;110812;1250;41622;-72
2022/05/11 11:16:10;;;;;;;3.90;1.60;;;;;30.32;97739.20;;;;110867;1251;41152;-70
2022/05/11 11:18:43;;;;;;;5.10;2.10;;;;;31.30;97740.40;;;;110885;1250;41297;-73
2022/05/11 11:21:14;;;;;;;8.70;2.00;;;;;32.06;97731.20;;;;110830;1250;41256;-72
2022/05/11 11:23:47;;;;;;;3.40;1.70;;;;;32.66;97722.80;;;;110884;1250;41283;-73
2022/05/11 11:26:30;;;;;;;6.60;1.80;;;;;33.54;97725.00;;;;110743;1252;41487;-70
2022/05/11 11:28:59;;;;;;;4.50;1.80;;;;;34.44;97709.20;;;;110993;1250;41125;-72
2022/05/11 11:31:29;;;;;;;3.50;1.60;;;;;35.00;97716.60;;;;110924;1250;41745;-76
2022/05/11 11:34:05;;;;;;;6.00;1.60;;;;;35.10;97713.40;;;;110915;1250;41898;-72
2022/05/11 11:36:41;;;;;;;4.10;1.60;;;;;34.84;97721.20;;;;110930;1250;41239;-72
2022/05/11 11:39:14;;;;;;;3.90;1.50;;;;;34.54;97722.00;;;;110907;1250;41961;-70
2022/05/11 11:41:43;;;;;;;4.90;1.60;;;;;33.70;97725.00;;;;110767;1250;41617;-71
2022/05/11 11:44:36;;;;;;;6.20;1.70;;;;;33.58;97718.60;;;;110974;1249;41169;-75
2022/05/11 11:47:27;;;;;;;6.10;1.90;;;;;34.20;97707.80;;;;110855;1250;41196;-73
2022/05/11 11:49:58;;;;;;;5.30;1.80;;;;;34.60;97708.80;;;;110864;1248;41153;-71
2022/05/11 11:52:43;;;;;;;5.20;1.70;;;;;34.24;97716.20;;;;110923;1250;41572;-71
2022/05/11 11:55:18;;;;;;;5.00;1.70;;;;;34.04;97701.20;;;;110991;1250;41148;-72
2022/05/11 11:57:53;;;;;;;5.60;1.90;;;;;33.58;97704.00;;;;110878;1250;41155;-72
2022/05/11 12:00:29;;;;;;;4.70;1.80;;;;;33.28;97702.80;;;;110904;1250;41641;-72
2022/05/11 12:03:25;;;;;;;3.10;1.60;;;;;32.78;97706.20;;;;110981;1250;41158;-71
2022/05/11 12:15:01;;;;;;;3.90;1.60;;;;;33.72;97709.20;;;;110871;1250;41677;-72
2022/05/11 12:17:38;;;;;;;5.70;1.80;;;;;36.06;97675.80;;;;110754;1253;42180;-71
2022/05/11 12:20:17;;;;;;;4.50;1.60;;;;;36.20;97671.80;;;;110838;1251;41536;-72
2022/05/11 12:22:57;;;;;;;3.60;1.70;;;;;35.90;97673.80;;;;110831;1252;41715;-70
2022/05/11 12:25:29;;;;;;;;;;;;;35.38;97671.20;;;;110786;1252;42047;-71
2022/05/11 12:28:02;;;;;;;4.20;1.80;;;;;33.82;97673.20;;;;110939;1250;41894;-72
2022/05/11 12:30:41;;;;;;;6.80;1.90;;;;;32.66;97677.00;;;;110835;1251;41179;-73
2022/05/11 12:33:20;;;;;;;3.00;1.50;;;;;32.38;97680.00;;;;110963;1251;41304;-72
2022/05/11 12:35:51;;;;;;;5.00;1.90;;;;;31.46;97672.60;;;;110823;1251;41152;-71
2022/05/11 12:38:38;;;;;;;4.70;1.70;;;;;30.58;97679.00;;;;110652;1253;40760;-72
2022/05/11 12:41:15;;;;;;;3.50;1.60;;;;;30.00;97682.00;;;;110696;1250;42067;-72
2022/05/11 12:44:12;;;;;;;4.80;1.70;;;;;29.90;97672.20;;;;110801;1251;41160;-72
2022/05/11 12:46:45;;;;;;;5.30;2.00;;;;;29.66;97671.00;;;;110757;1251;41483;-71
2022/05/11 12:49:16;;;;;;;3.40;1.60;;;;;29.28;97666.40;;;;110809;1252;41369;-71
2022/05/11 12:52:05;;;;;;;6.70;1.90;;;;;28.80;97664.80;;;;110762;1250;41170;-72
2022/05/11 12:54:34;;;;;;;5.00;1.80;;;;;28.50;97664.60;;;;110928;1250;41173;-72
2022/05/11 12:57:12;;;;;;;5.10;1.90;;;;;28.02;97664.00;;;;110725;1250;41139;-74
2022/05/11 12:59:56;;;;;;;4.60;2.00;;;;;27.90;97658.60;;;;110925;1250;41490;-74
2022/05/11 13:02:31;;;;;;;4.00;1.70;;;;;27.66;97660.00;;;;110687;1252;41147;-73
2022/05/11 13:05:07;;;;;;;3.70;1.60;;;;;27.58;97659.40;;;;110737;1250;41213;-72
2022/05/11 13:07:56;;;;;;;4.70;1.70;;;;;27.70;97651.80;;;;110909;1250;42358;-73
2022/05/11 13:10:33;;;;;;;4.40;1.70;;;;;27.58;97651.80;;;;110899;1251;41939;-74
2022/05/11 13:13:06;;;;;;;5.20;1.90;;;;;27.50;97650.60;;;;110787;1251;41156;-72
2022/05/11 13:15:39;;;;;;;7.10;2.00;;;;;27.36;97644.80;;;;110673;1250;41533;-72
2022/05/11 13:18:12;;;;;;;6.20;1.80;;;;;27.40;97641.00;;;;110775;1251;41130;-71
2022/05/11 13:20:43;;;;;;;5.90;2.10;;;;;27.40;97639.80;;;;110750;1252;41139;-73
2022/05/11 13:23:37;;;;;;;4.60;1.70;;;;;27.30;97638.80;;;;110742;1250;41702;-73
2022/05/11 13:26:29;;;;;;;3.80;1.70;;;;;27.20;97641.80;;;;110935;1250;41270;-75